sensor_id;sensor_type;location;lat;lon;timestamp;P1;durP1;ratioP1;P2;durP2;ratioP2
85377;SDS011;75782;48.632;10.230;2024-03-02T00:00:20;29.83;;;18.40;;
85377;SDS011;75782;48.632;10.230;2024-03-02T00:02:47;26.73;;;18.50;;
85377;SDS011;75782;48.632;10.230;2024-03-02T00:05:16;25.53;;;17.67;;
85377;SDS011;75782;48.632;10.230;2024-03-02T00:07:42;27.13;;;17.90;;
85377;SDS011;75782;48.632;10.230;2024-03-02T00:10:09;25.60;;;17.23;;
85377;SDS011;75782;48.632;10.230;2024-03-02T00:12:37;25.00;;;16.10;;
85377;SDS011;75782;48.632;10.230;2024-03-02T00:15:05;25.70;;;16.43;;
85377;SDS011;75782;48.632;10.230;2024-03-02T00:17:33;26.93;;;17.20;;
85377;SDS011;75782;48.632;10.230;2024-03-02T00:20:00;29.87;;;18.40;;
85377;SDS011;75782;48.632;10.230;2024-03-02T00:22:26;25.93;;;17.70;;
85377;SDS011;75782;48.632;10.230;2024-03-02T00:24:53;26.20;;;16.80;;
85377;SDS011;75782;48.632;10.230;2024-03-02T00:27:20;25.80;;;17.27;;
85377;SDS011;75782;48.632;10.230;2024-03-02T00:29:47;25.00;;;17.77;;
85377;SDS011;75782;48.632;10.230;2024-03-02T00:32:13;28.30;;;19.17;;
85377;SDS011;75782;48.632;10.230;2024-03-02T00:34:40;25.03;;;16.83;;
85377;SDS011;75782;48.632;10.230;2024-03-02T00:37:07;28.50;;;17.37;;
85377;SDS011;75782;48.632;10.230;2024-03-02T00:39:34;27.00;;;17.30;;
85377;SDS011;75782;48.632;10.230;2024-03-02T00:42:00;25.50;;;17.30;;
85377;SDS011;75782;48.632;10.230;2024-03-02T00:44:27;25.43;;;17.80;;
85377;SDS011;75782;48.632;10.230;2024-03-02T00:46:54;26.00;;;18.13;;
85377;SDS011;75782;48.632;10.230;2024-03-02T00:49:22;28.10;;;16.60;;
85377;SDS011;75782;48.632;10.230;2024-03-02T00:51:49;25.57;;;16.40;;
85377;SDS011;75782;48.632;10.230;2024-03-02T00:54:15;28.87;;;17.87;;
85377;SDS011;75782;48.632;10.230;2024-03-02T00:56:42;24.03;;;17.03;;
85377;SDS011;75782;48.632;10.230;2024-03-02T00:59:10;27.40;;;17.40;;
85377;SDS011;75782;48.632;10.230;2024-03-02T01:01:36;28.37;;;18.80;;
85377;SDS011;75782;48.632;10.230;2024-03-02T01:04:03;27.70;;;17.40;;
85377;SDS011;75782;48.632;10.230;2024-03-02T01:06:29;24.43;;;16.87;;
85377;SDS011;75782;48.632;10.230;2024-03-02T01:08:55;26.40;;;18.00;;
85377;SDS011;75782;48.632;10.230;2024-03-02T01:11:23;31.50;;;18.40;;
85377;SDS011;75782;48.632;10.230;2024-03-02T01:13:49;30.80;;;17.67;;
85377;SDS011;75782;48.632;10.230;2024-03-02T01:16:16;25.20;;;16.80;;
85377;SDS011;75782;48.632;10.230;2024-03-02T01:18:43;26.37;;;17.03;;
85377;SDS011;75782;48.632;10.230;2024-03-02T01:21:10;31.77;;;18.93;;
85377;SDS011;75782;48.632;10.230;2024-03-02T01:23:37;29.17;;;18.30;;
85377;SDS011;75782;48.632;10.230;2024-03-02T01:26:04;28.00;;;17.80;;
85377;SDS011;75782;48.632;10.230;2024-03-02T01:28:30;27.53;;;18.17;;
85377;SDS011;75782;48.632;10.230;2024-03-02T01:30:57;25.50;;;18.23;;
85377;SDS011;75782;48.632;10.230;2024-03-02T01:33:23;25.83;;;16.43;;
85377;SDS011;75782;48.632;10.230;2024-03-02T01:35:50;25.03;;;17.30;;
85377;SDS011;75782;48.632;10.230;2024-03-02T01:38:17;28.50;;;18.20;;
85377;SDS011;75782;48.632;10.230;2024-03-02T01:40:44;26.50;;;17.27;;
85377;SDS011;75782;48.632;10.230;2024-03-02T01:43:11;27.30;;;17.47;;
85377;SDS011;75782;48.632;10.230;2024-03-02T01:45:38;25.10;;;16.70;;
85377;SDS011;75782;48.632;10.230;2024-03-02T01:48:06;29.43;;;18.43;;
85377;SDS011;75782;48.632;10.230;2024-03-02T01:50:33;27.80;;;16.90;;
85377;SDS011;75782;48.632;10.230;2024-03-02T01:52:59;27.87;;;17.53;;
85377;SDS011;75782;48.632;10.230;2024-03-02T01:55:26;25.47;;;17.10;;
85377;SDS011;75782;48.632;10.230;2024-03-02T01:57:53;30.97;;;17.83;;
85377;SDS011;75782;48.632;10.230;2024-03-02T02:00:20;26.53;;;17.50;;
85377;SDS011;75782;48.632;10.230;2024-03-02T02:02:46;29.47;;;20.17;;
85377;SDS011;75782;48.632;10.230;2024-03-02T02:05:13;25.30;;;17.53;;
85377;SDS011;75782;48.632;10.230;2024-03-02T02:07:41;27.33;;;19.10;;
85377;SDS011;75782;48.632;10.230;2024-03-02T02:10:07;28.87;;;19.10;;
85377;SDS011;75782;48.632;10.230;2024-03-02T02:12:34;27.30;;;17.07;;
85377;SDS011;75782;48.632;10.230;2024-03-02T02:15:00;24.90;;;17.20;;
85377;SDS011;75782;48.632;10.230;2024-03-02T02:17:27;27.97;;;17.90;;
85377;SDS011;75782;48.632;10.230;2024-03-02T02:19:54;31.03;;;19.03;;
85377;SDS011;75782;48.632;10.230;2024-03-02T02:22:21;29.90;;;18.10;;
85377;SDS011;75782;48.632;10.230;2024-03-02T02:24:48;29.70;;;19.07;;
85377;SDS011;75782;48.632;10.230;2024-03-02T02:27:16;32.47;;;19.27;;
85377;SDS011;75782;48.632;10.230;2024-03-02T02:29:42;31.40;;;19.57;;
85377;SDS011;75782;48.632;10.230;2024-03-02T02:32:09;29.30;;;19.17;;
85377;SDS011;75782;48.632;10.230;2024-03-02T02:34:36;31.53;;;19.50;;
85377;SDS011;75782;48.632;10.230;2024-03-02T02:37:03;29.90;;;18.37;;
85377;SDS011;75782;48.632;10.230;2024-03-02T02:39:29;33.10;;;21.20;;
85377;SDS011;75782;48.632;10.230;2024-03-02T02:41:57;29.50;;;20.30;;
85377;SDS011;75782;48.632;10.230;2024-03-02T02:44:23;33.10;;;22.07;;
85377;SDS011;75782;48.632;10.230;2024-03-02T02:46:51;31.33;;;19.67;;
85377;SDS011;75782;48.632;10.230;2024-03-02T02:49:18;31.60;;;19.93;;
85377;SDS011;75782;48.632;10.230;2024-03-02T02:51:45;32.40;;;21.60;;
85377;SDS011;75782;48.632;10.230;2024-03-02T02:54:13;28.27;;;18.67;;
85377;SDS011;75782;48.632;10.230;2024-03-02T02:56:39;33.63;;;19.93;;
85377;SDS011;75782;48.632;10.230;2024-03-02T02:59:06;32.60;;;19.67;;
85377;SDS011;75782;48.632;10.230;2024-03-02T03:01:33;36.43;;;21.53;;
85377;SDS011;75782;48.632;10.230;2024-03-02T03:03:59;37.47;;;22.83;;
85377;SDS011;75782;48.632;10.230;2024-03-02T03:06:26;32.80;;;20.00;;
85377;SDS011;75782;48.632;10.230;2024-03-02T03:08:53;36.90;;;22.30;;
85377;SDS011;75782;48.632;10.230;2024-03-02T03:11:20;34.90;;;20.13;;
85377;SDS011;75782;48.632;10.230;2024-03-02T03:13:46;36.27;;;20.67;;
85377;SDS011;75782;48.632;10.230;2024-03-02T03:16:13;39.93;;;23.70;;
85377;SDS011;75782;48.632;10.230;2024-03-02T03:18:40;37.50;;;20.43;;
85377;SDS011;75782;48.632;10.230;2024-03-02T03:21:07;36.20;;;21.20;;
85377;SDS011;75782;48.632;10.230;2024-03-02T03:23:34;34.83;;;20.63;;
85377;SDS011;75782;48.632;10.230;2024-03-02T03:26:01;40.57;;;21.87;;
85377;SDS011;75782;48.632;10.230;2024-03-02T03:28:28;33.30;;;21.67;;
85377;SDS011;75782;48.632;10.230;2024-03-02T03:30:55;39.17;;;22.20;;
85377;SDS011;75782;48.632;10.230;2024-03-02T03:33:21;42.13;;;23.20;;
85377;SDS011;75782;48.632;10.230;2024-03-02T03:35:48;42.10;;;24.20;;
85377;SDS011;75782;48.632;10.230;2024-03-02T03:38:15;39.77;;;23.07;;
85377;SDS011;75782;48.632;10.230;2024-03-02T03:40:41;36.40;;;22.33;;
85377;SDS011;75782;48.632;10.230;2024-03-02T03:43:08;40.13;;;21.97;;
85377;SDS011;75782;48.632;10.230;2024-03-02T03:45:34;37.23;;;22.37;;
85377;SDS011;75782;48.632;10.230;2024-03-02T03:48:02;39.63;;;22.57;;
85377;SDS011;75782;48.632;10.230;2024-03-02T03:50:28;40.20;;;23.43;;
85377;SDS011;75782;48.632;10.230;2024-03-02T03:52:54;42.70;;;24.33;;
85377;SDS011;75782;48.632;10.230;2024-03-02T03:55:22;43.83;;;24.63;;
85377;SDS011;75782;48.632;10.230;2024-03-02T03:57:49;48.30;;;26.83;;
85377;SDS011;75782;48.632;10.230;2024-03-02T04:00:16;43.30;;;26.03;;
85377;SDS011;75782;48.632;10.230;2024-03-02T04:02:43;44.77;;;24.80;;
85377;SDS011;75782;48.632;10.230;2024-03-02T04:05:10;54.67;;;28.03;;
85377;SDS011;75782;48.632;10.230;2024-03-02T04:07:37;56.20;;;30.07;;
85377;SDS011;75782;48.632;10.230;2024-03-02T04:10:04;64.70;;;33.67;;
85377;SDS011;75782;48.632;10.230;2024-03-02T04:12:31;65.37;;;33.40;;
85377;SDS011;75782;48.632;10.230;2024-03-02T04:14:57;74.73;;;34.30;;
85377;SDS011;75782;48.632;10.230;2024-03-02T04:17:24;75.00;;;36.40;;
85377;SDS011;75782;48.632;10.230;2024-03-02T04:19:50;61.43;;;34.27;;
85377;SDS011;75782;48.632;10.230;2024-03-02T04:22:18;62.30;;;33.00;;
85377;SDS011;75782;48.632;10.230;2024-03-02T04:24:45;61.67;;;33.20;;
85377;SDS011;75782;48.632;10.230;2024-03-02T04:27:12;73.30;;;35.13;;
85377;SDS011;75782;48.632;10.230;2024-03-02T04:29:39;67.37;;;31.27;;
85377;SDS011;75782;48.632;10.230;2024-03-02T04:32:06;94.13;;;38.80;;
85377;SDS011;75782;48.632;10.230;2024-03-02T04:34:32;80.37;;;34.03;;
85377;SDS011;75782;48.632;10.230;2024-03-02T04:36:59;79.90;;;32.67;;
85377;SDS011;75782;48.632;10.230;2024-03-02T04:39:26;98.70;;;33.57;;
85377;SDS011;75782;48.632;10.230;2024-03-02T04:41:52;71.50;;;31.53;;
85377;SDS011;75782;48.632;10.230;2024-03-02T04:44:20;52.00;;;27.17;;
85377;SDS011;75782;48.632;10.230;2024-03-02T04:46:46;103.87;;;32.00;;
85377;SDS011;75782;48.632;10.230;2024-03-02T04:49:13;58.87;;;27.33;;
85377;SDS011;75782;48.632;10.230;2024-03-02T04:51:39;65.33;;;29.67;;
85377;SDS011;75782;48.632;10.230;2024-03-02T04:54:07;40.60;;;25.57;;
85377;SDS011;75782;48.632;10.230;2024-03-02T04:56:34;52.70;;;30.03;;
85377;SDS011;75782;48.632;10.230;2024-03-02T04:59:05;48.60;;;28.30;;
85377;SDS011;75782;48.632;10.230;2024-03-02T05:01:31;47.53;;;25.53;;
85377;SDS011;75782;48.632;10.230;2024-03-02T05:03:58;51.47;;;27.20;;
85377;SDS011;75782;48.632;10.230;2024-03-02T05:06:25;48.17;;;27.17;;
85377;SDS011;75782;48.632;10.230;2024-03-02T05:08:52;58.97;;;27.60;;
85377;SDS011;75782;48.632;10.230;2024-03-02T05:11:19;55.40;;;26.67;;
85377;SDS011;75782;48.632;10.230;2024-03-02T05:13:51;72.60;;;30.47;;
85377;SDS011;75782;48.632;10.230;2024-03-02T05:16:17;53.00;;;27.07;;
85377;SDS011;75782;48.632;10.230;2024-03-02T05:18:44;46.90;;;24.40;;
85377;SDS011;75782;48.632;10.230;2024-03-02T05:21:11;48.80;;;24.50;;
85377;SDS011;75782;48.632;10.230;2024-03-02T05:23:38;49.20;;;24.87;;
85377;SDS011;75782;48.632;10.230;2024-03-02T05:26:05;59.30;;;25.60;;
85377;SDS011;75782;48.632;10.230;2024-03-02T05:28:31;39.10;;;23.90;;
85377;SDS011;75782;48.632;10.230;2024-03-02T05:30:58;56.73;;;24.60;;
85377;SDS011;75782;48.632;10.230;2024-03-02T05:33:25;50.20;;;26.17;;
85377;SDS011;75782;48.632;10.230;2024-03-02T05:35:52;43.57;;;24.83;;
85377;SDS011;75782;48.632;10.230;2024-03-02T05:38:19;36.23;;;22.40;;
85377;SDS011;75782;48.632;10.230;2024-03-02T05:40:46;44.10;;;23.30;;
85377;SDS011;75782;48.632;10.230;2024-03-02T05:43:14;52.57;;;26.17;;
85377;SDS011;75782;48.632;10.230;2024-03-02T05:45:40;44.43;;;24.67;;
85377;SDS011;75782;48.632;10.230;2024-03-02T05:48:07;52.27;;;25.30;;
85377;SDS011;75782;48.632;10.230;2024-03-02T05:50:34;43.53;;;25.53;;
85377;SDS011;75782;48.632;10.230;2024-03-02T05:53:01;56.93;;;26.60;;
85377;SDS011;75782;48.632;10.230;2024-03-02T05:55:28;40.30;;;23.40;;
85377;SDS011;75782;48.632;10.230;2024-03-02T05:57:55;62.03;;;26.67;;
85377;SDS011;75782;48.632;10.230;2024-03-02T06:00:24;62.90;;;26.70;;
85377;SDS011;75782;48.632;10.230;2024-03-02T06:02:51;44.07;;;22.70;;
85377;SDS011;75782;48.632;10.230;2024-03-02T06:05:17;34.30;;;21.83;;
85377;SDS011;75782;48.632;10.230;2024-03-02T06:07:44;44.70;;;22.40;;
85377;SDS011;75782;48.632;10.230;2024-03-02T06:10:11;38.13;;;22.63;;
85377;SDS011;75782;48.632;10.230;2024-03-02T06:12:37;45.30;;;21.30;;
85377;SDS011;75782;48.632;10.230;2024-03-02T06:15:05;38.80;;;19.93;;
85377;SDS011;75782;48.632;10.230;2024-03-02T06:17:31;56.73;;;22.30;;
85377;SDS011;75782;48.632;10.230;2024-03-02T06:19:58;37.70;;;21.07;;
85377;SDS011;75782;48.632;10.230;2024-03-02T06:22:25;42.27;;;21.77;;
85377;SDS011;75782;48.632;10.230;2024-03-02T06:24:51;66.70;;;25.07;;
85377;SDS011;75782;48.632;10.230;2024-03-02T06:27:18;58.30;;;21.33;;
85377;SDS011;75782;48.632;10.230;2024-03-02T06:29:45;41.90;;;19.87;;
85377;SDS011;75782;48.632;10.230;2024-03-02T06:32:12;37.50;;;20.83;;
85377;SDS011;75782;48.632;10.230;2024-03-02T06:34:39;41.17;;;21.17;;
85377;SDS011;75782;48.632;10.230;2024-03-02T06:37:06;39.93;;;21.83;;
85377;SDS011;75782;48.632;10.230;2024-03-02T06:39:32;26.30;;;19.13;;
85377;SDS011;75782;48.632;10.230;2024-03-02T06:41:59;40.80;;;21.10;;
85377;SDS011;75782;48.632;10.230;2024-03-02T06:44:26;44.07;;;22.93;;
85377;SDS011;75782;48.632;10.230;2024-03-02T06:46:52;48.30;;;22.93;;
85377;SDS011;75782;48.632;10.230;2024-03-02T06:49:20;45.40;;;23.93;;
85377;SDS011;75782;48.632;10.230;2024-03-02T06:51:46;43.60;;;23.30;;
85377;SDS011;75782;48.632;10.230;2024-03-02T06:54:13;78.23;;;24.00;;
85377;SDS011;75782;48.632;10.230;2024-03-02T06:56:39;38.90;;;23.77;;
85377;SDS011;75782;48.632;10.230;2024-03-02T06:59:06;48.87;;;20.67;;
85377;SDS011;75782;48.632;10.230;2024-03-02T07:01:32;34.57;;;19.87;;
85377;SDS011;75782;48.632;10.230;2024-03-02T07:04:00;34.83;;;19.40;;
85377;SDS011;75782;48.632;10.230;2024-03-02T07:06:26;31.20;;;19.33;;
85377;SDS011;75782;48.632;10.230;2024-03-02T07:08:53;30.33;;;19.60;;
85377;SDS011;75782;48.632;10.230;2024-03-02T07:11:20;29.97;;;19.33;;
85377;SDS011;75782;48.632;10.230;2024-03-02T07:13:46;33.03;;;19.80;;
85377;SDS011;75782;48.632;10.230;2024-03-02T07:16:13;32.00;;;19.90;;
85377;SDS011;75782;48.632;10.230;2024-03-02T07:18:45;28.60;;;20.10;;
85377;SDS011;75782;48.632;10.230;2024-03-02T07:21:12;25.93;;;18.40;;
85377;SDS011;75782;48.632;10.230;2024-03-02T07:23:38;26.43;;;19.87;;
85377;SDS011;75782;48.632;10.230;2024-03-02T07:26:05;29.30;;;18.60;;
85377;SDS011;75782;48.632;10.230;2024-03-02T07:28:32;30.63;;;18.97;;
85377;SDS011;75782;48.632;10.230;2024-03-02T07:30:59;26.00;;;18.60;;
85377;SDS011;75782;48.632;10.230;2024-03-02T07:33:25;31.70;;;20.90;;
85377;SDS011;75782;48.632;10.230;2024-03-02T07:35:51;34.67;;;22.00;;
85377;SDS011;75782;48.632;10.230;2024-03-02T07:38:18;32.03;;;20.10;;
85377;SDS011;75782;48.632;10.230;2024-03-02T07:40:45;31.40;;;19.30;;
85377;SDS011;75782;48.632;10.230;2024-03-02T07:43:11;30.37;;;18.97;;
85377;SDS011;75782;48.632;10.230;2024-03-02T07:45:38;30.30;;;18.87;;
85377;SDS011;75782;48.632;10.230;2024-03-02T07:48:04;24.97;;;18.20;;
85377;SDS011;75782;48.632;10.230;2024-03-02T07:50:31;28.23;;;17.00;;
85377;SDS011;75782;48.632;10.230;2024-03-02T07:52:59;28.83;;;17.97;;
85377;SDS011;75782;48.632;10.230;2024-03-02T07:55:25;23.97;;;16.20;;
85377;SDS011;75782;48.632;10.230;2024-03-02T07:57:52;27.40;;;17.07;;
85377;SDS011;75782;48.632;10.230;2024-03-02T08:00:19;25.83;;;17.07;;
85377;SDS011;75782;48.632;10.230;2024-03-02T08:02:45;23.80;;;17.40;;
85377;SDS011;75782;48.632;10.230;2024-03-02T08:05:12;26.90;;;16.43;;
85377;SDS011;75782;48.632;10.230;2024-03-02T08:07:38;23.60;;;16.10;;
85377;SDS011;75782;48.632;10.230;2024-03-02T08:10:05;25.23;;;16.67;;
85377;SDS011;75782;48.632;10.230;2024-03-02T08:12:32;24.20;;;16.70;;
85377;SDS011;75782;48.632;10.230;2024-03-02T08:15:00;23.50;;;16.00;;
85377;SDS011;75782;48.632;10.230;2024-03-02T08:17:26;23.95;;;18.60;;
85377;SDS011;75782;48.632;10.230;2024-03-02T08:19:54;21.07;;;15.93;;
85377;SDS011;75782;48.632;10.230;2024-03-02T08:22:21;23.13;;;16.43;;
85377;SDS011;75782;48.632;10.230;2024-03-02T08:24:48;25.03;;;16.87;;
85377;SDS011;75782;48.632;10.230;2024-03-02T08:27:14;23.63;;;16.50;;
85377;SDS011;75782;48.632;10.230;2024-03-02T08:29:41;22.47;;;15.87;;
85377;SDS011;75782;48.632;10.230;2024-03-02T08:32:08;18.57;;;14.87;;
85377;SDS011;75782;48.632;10.230;2024-03-02T08:34:35;22.27;;;15.07;;
85377;SDS011;75782;48.632;10.230;2024-03-02T08:37:03;22.30;;;16.07;;
85377;SDS011;75782;48.632;10.230;2024-03-02T08:39:30;21.63;;;14.33;;
85377;SDS011;75782;48.632;10.230;2024-03-02T08:41:56;19.33;;;13.43;;
85377;SDS011;75782;48.632;10.230;2024-03-02T08:44:23;16.47;;;12.87;;
85377;SDS011;75782;48.632;10.230;2024-03-02T08:46:49;21.37;;;14.53;;
85377;SDS011;75782;48.632;10.230;2024-03-02T08:49:17;21.20;;;15.17;;
85377;SDS011;75782;48.632;10.230;2024-03-02T08:51:44;20.37;;;15.00;;
85377;SDS011;75782;48.632;10.230;2024-03-02T08:54:11;22.77;;;14.50;;
85377;SDS011;75782;48.632;10.230;2024-03-02T08:56:37;20.93;;;14.63;;
85377;SDS011;75782;48.632;10.230;2024-03-02T08:59:04;22.10;;;15.77;;
85377;SDS011;75782;48.632;10.230;2024-03-02T09:01:30;22.40;;;15.37;;
85377;SDS011;75782;48.632;10.230;2024-03-02T09:03:57;19.60;;;13.47;;
85377;SDS011;75782;48.632;10.230;2024-03-02T09:06:24;18.30;;;13.40;;
85377;SDS011;75782;48.632;10.230;2024-03-02T09:08:51;18.20;;;14.03;;
85377;SDS011;75782;48.632;10.230;2024-03-02T09:11:18;16.53;;;12.70;;
85377;SDS011;75782;48.632;10.230;2024-03-02T09:13:44;15.70;;;12.53;;
85377;SDS011;75782;48.632;10.230;2024-03-02T09:16:12;18.40;;;12.77;;
85377;SDS011;75782;48.632;10.230;2024-03-02T09:18:38;13.83;;;11.33;;
85377;SDS011;75782;48.632;10.230;2024-03-02T09:21:05;14.30;;;11.37;;
85377;SDS011;75782;48.632;10.230;2024-03-02T09:23:31;16.50;;;12.50;;
85377;SDS011;75782;48.632;10.230;2024-03-02T09:25:58;14.97;;;13.30;;
85377;SDS011;75782;48.632;10.230;2024-03-02T09:28:25;14.63;;;12.40;;
85377;SDS011;75782;48.632;10.230;2024-03-02T09:30:52;16.23;;;12.33;;
85377;SDS011;75782;48.632;10.230;2024-03-02T09:33:19;15.33;;;13.13;;
85377;SDS011;75782;48.632;10.230;2024-03-02T09:35:46;15.40;;;13.40;;
85377;SDS011;75782;48.632;10.230;2024-03-02T09:38:12;15.50;;;12.30;;
85377;SDS011;75782;48.632;10.230;2024-03-02T09:40:40;16.13;;;13.63;;
85377;SDS011;75782;48.632;10.230;2024-03-02T09:43:06;16.13;;;13.10;;
85377;SDS011;75782;48.632;10.230;2024-03-02T09:45:32;15.53;;;13.10;;
85377;SDS011;75782;48.632;10.230;2024-03-02T09:47:59;15.80;;;12.70;;
85377;SDS011;75782;48.632;10.230;2024-03-02T09:50:26;16.00;;;12.20;;
85377;SDS011;75782;48.632;10.230;2024-03-02T09:52:53;14.13;;;11.73;;
85377;SDS011;75782;48.632;10.230;2024-03-02T09:55:20;12.43;;;10.70;;
85377;SDS011;75782;48.632;10.230;2024-03-02T09:57:46;12.50;;;11.20;;
85377;SDS011;75782;48.632;10.230;2024-03-02T10:00:14;12.20;;;10.13;;
85377;SDS011;75782;48.632;10.230;2024-03-02T10:02:41;14.73;;;11.37;;
85377;SDS011;75782;48.632;10.230;2024-03-02T10:05:08;16.57;;;12.03;;
85377;SDS011;75782;48.632;10.230;2024-03-02T10:07:36;16.17;;;12.00;;
85377;SDS011;75782;48.632;10.230;2024-03-02T10:10:12;12.93;;;10.97;;
85377;SDS011;75782;48.632;10.230;2024-03-02T10:12:39;13.07;;;10.40;;
85377;SDS011;75782;48.632;10.230;2024-03-02T10:15:05;12.00;;;10.60;;
85377;SDS011;75782;48.632;10.230;2024-03-02T10:17:32;14.10;;;11.67;;
85377;SDS011;75782;48.632;10.230;2024-03-02T10:19:59;11.60;;;10.40;;
85377;SDS011;75782;48.632;10.230;2024-03-02T10:22:25;10.77;;;9.67;;
85377;SDS011;75782;48.632;10.230;2024-03-02T10:24:52;11.43;;;9.73;;
85377;SDS011;75782;48.632;10.230;2024-03-02T10:27:23;10.73;;;9.13;;
85377;SDS011;75782;48.632;10.230;2024-03-02T10:29:49;13.07;;;11.67;;
85377;SDS011;75782;48.632;10.230;2024-03-02T10:32:16;12.27;;;11.07;;
85377;SDS011;75782;48.632;10.230;2024-03-02T10:34:44;12.63;;;11.40;;
85377;SDS011;75782;48.632;10.230;2024-03-02T10:37:10;13.13;;;11.93;;
85377;SDS011;75782;48.632;10.230;2024-03-02T10:39:37;13.20;;;12.00;;
85377;SDS011;75782;48.632;10.230;2024-03-02T10:42:03;12.70;;;11.50;;
85377;SDS011;75782;48.632;10.230;2024-03-02T10:44:31;13.90;;;12.53;;
85377;SDS011;75782;48.632;10.230;2024-03-02T10:46:58;12.57;;;11.47;;
85377;SDS011;75782;48.632;10.230;2024-03-02T10:49:24;11.90;;;10.70;;
85377;SDS011;75782;48.632;10.230;2024-03-02T10:51:50;12.97;;;11.77;;
85377;SDS011;75782;48.632;10.230;2024-03-02T10:54:17;13.93;;;12.67;;
85377;SDS011;75782;48.632;10.230;2024-03-02T10:56:44;13.30;;;12.10;;
85377;SDS011;75782;48.632;10.230;2024-03-02T10:59:16;13.53;;;12.33;;
85377;SDS011;75782;48.632;10.230;2024-03-02T11:01:57;13.07;;;11.83;;
85377;SDS011;75782;48.632;10.230;2024-03-02T11:04:25;12.00;;;10.90;;
85377;SDS011;75782;48.632;10.230;2024-03-02T11:06:52;11.80;;;10.70;;
85377;SDS011;75782;48.632;10.230;2024-03-02T11:09:18;10.83;;;9.90;;
85377;SDS011;75782;48.632;10.230;2024-03-02T11:11:44;12.27;;;11.07;;
85377;SDS011;75782;48.632;10.230;2024-03-02T11:14:13;11.77;;;10.67;;
85377;SDS011;75782;48.632;10.230;2024-03-02T11:16:38;10.80;;;9.80;;
85377;SDS011;75782;48.632;10.230;2024-03-02T11:19:06;10.10;;;9.17;;
85377;SDS011;75782;48.632;10.230;2024-03-02T11:21:33;11.37;;;10.27;;
85377;SDS011;75782;48.632;10.230;2024-03-02T11:24:08;10.37;;;9.27;;
85377;SDS011;75782;48.632;10.230;2024-03-02T11:26:38;10.47;;;9.57;;
85377;SDS011;75782;48.632;10.230;2024-03-02T11:29:01;10.03;;;9.03;;
85377;SDS011;75782;48.632;10.230;2024-03-02T11:31:56;9.00;;;8.10;;
85377;SDS011;75782;48.632;10.230;2024-03-02T11:33:54;8.40;;;7.60;;
85377;SDS011;75782;48.632;10.230;2024-03-02T11:36:21;9.00;;;8.20;;
85377;SDS011;75782;48.632;10.230;2024-03-02T11:38:47;9.60;;;8.43;;
85377;SDS011;75782;48.632;10.230;2024-03-02T11:41:14;8.70;;;7.90;;
85377;SDS011;75782;48.632;10.230;2024-03-02T11:43:41;9.93;;;8.93;;
85377;SDS011;75782;48.632;10.230;2024-03-02T11:46:08;8.10;;;7.33;;
85377;SDS011;75782;48.632;10.230;2024-03-02T11:48:35;8.57;;;7.77;;
85377;SDS011;75782;48.632;10.230;2024-03-02T11:51:01;8.77;;;7.90;;
85377;SDS011;75782;48.632;10.230;2024-03-02T11:53:28;9.70;;;7.53;;
85377;SDS011;75782;48.632;10.230;2024-03-02T11:55:55;9.00;;;8.10;;
85377;SDS011;75782;48.632;10.230;2024-03-02T11:58:23;9.47;;;8.50;;
85377;SDS011;75782;48.632;10.230;2024-03-02T12:00:51;9.33;;;7.53;;
85377;SDS011;75782;48.632;10.230;2024-03-02T12:03:18;8.47;;;7.67;;
85377;SDS011;75782;48.632;10.230;2024-03-02T12:05:44;7.67;;;6.90;;
85377;SDS011;75782;48.632;10.230;2024-03-02T12:08:11;7.03;;;6.43;;
85377;SDS011;75782;48.632;10.230;2024-03-02T12:10:37;8.30;;;7.40;;
85377;SDS011;75782;48.632;10.230;2024-03-02T12:13:05;7.67;;;6.97;;
85377;SDS011;75782;48.632;10.230;2024-03-02T12:15:31;7.70;;;7.00;;
85377;SDS011;75782;48.632;10.230;2024-03-02T12:17:58;7.43;;;6.70;;
85377;SDS011;75782;48.632;10.230;2024-03-02T12:20:24;8.63;;;7.73;;
85377;SDS011;75782;48.632;10.230;2024-03-02T12:22:51;8.97;;;8.07;;
85377;SDS011;75782;48.632;10.230;2024-03-02T12:25:20;9.43;;;8.53;;
85377;SDS011;75782;48.632;10.230;2024-03-02T12:27:46;9.23;;;8.27;;
85377;SDS011;75782;48.632;10.230;2024-03-02T12:30:17;8.93;;;8.07;;
85377;SDS011;75782;48.632;10.230;2024-03-02T12:32:44;9.17;;;8.30;;
85377;SDS011;75782;48.632;10.230;2024-03-02T12:35:10;9.30;;;8.40;;
85377;SDS011;75782;48.632;10.230;2024-03-02T12:37:45;8.90;;;8.03;;
85377;SDS011;75782;48.632;10.230;2024-03-02T12:40:13;9.20;;;8.30;;
85377;SDS011;75782;48.632;10.230;2024-03-02T12:42:39;9.43;;;7.83;;
85377;SDS011;75782;48.632;10.230;2024-03-02T12:45:06;9.10;;;7.73;;
85377;SDS011;75782;48.632;10.230;2024-03-02T12:47:33;8.73;;;7.83;;
85377;SDS011;75782;48.632;10.230;2024-03-02T12:49:59;8.63;;;7.73;;
85377;SDS011;75782;48.632;10.230;2024-03-02T12:52:26;8.10;;;7.40;;
85377;SDS011;75782;48.632;10.230;2024-03-02T12:54:53;8.30;;;7.50;;
85377;SDS011;75782;48.632;10.230;2024-03-02T12:57:19;8.87;;;7.37;;
85377;SDS011;75782;48.632;10.230;2024-03-02T12:59:46;8.67;;;7.77;;
85377;SDS011;75782;48.632;10.230;2024-03-02T13:02:17;8.53;;;7.73;;
85377;SDS011;75782;48.632;10.230;2024-03-02T13:04:43;7.80;;;7.10;;
85377;SDS011;75782;48.632;10.230;2024-03-02T13:07:10;8.47;;;7.67;;
85377;SDS011;75782;48.632;10.230;2024-03-02T13:09:36;8.80;;;7.90;;
85377;SDS011;75782;48.632;10.230;2024-03-02T13:12:03;7.37;;;6.73;;
85377;SDS011;75782;48.632;10.230;2024-03-02T13:14:32;8.63;;;7.83;;
85377;SDS011;75782;48.632;10.230;2024-03-02T13:16:57;7.33;;;6.63;;
85377;SDS011;75782;48.632;10.230;2024-03-02T13:19:23;9.33;;;8.43;;
85377;SDS011;75782;48.632;10.230;2024-03-02T13:21:49;7.63;;;7.03;;
85377;SDS011;75782;48.632;10.230;2024-03-02T13:24:16;9.50;;;7.50;;
85377;SDS011;75782;48.632;10.230;2024-03-02T13:26:44;6.20;;;5.60;;
85377;SDS011;75782;48.632;10.230;2024-03-02T13:29:10;7.37;;;6.67;;
85377;SDS011;75782;48.632;10.230;2024-03-02T13:31:37;10.00;;;7.50;;
85377;SDS011;75782;48.632;10.230;2024-03-02T13:34:04;7.63;;;6.43;;
85377;SDS011;75782;48.632;10.230;2024-03-02T13:36:30;9.30;;;8.40;;
85377;SDS011;75782;48.632;10.230;2024-03-02T13:38:57;9.70;;;8.37;;
85377;SDS011;75782;48.632;10.230;2024-03-02T13:41:23;8.77;;;7.87;;
85377;SDS011;75782;48.632;10.230;2024-03-02T13:43:51;11.50;;;8.30;;
85377;SDS011;75782;48.632;10.230;2024-03-02T13:46:17;12.10;;;7.80;;
85377;SDS011;75782;48.632;10.230;2024-03-02T13:48:44;10.80;;;8.67;;
85377;SDS011;75782;48.632;10.230;2024-03-02T13:51:11;9.57;;;8.13;;
85377;SDS011;75782;48.632;10.230;2024-03-02T13:53:37;10.33;;;8.30;;
85377;SDS011;75782;48.632;10.230;2024-03-02T13:56:04;10.27;;;8.97;;
85377;SDS011;75782;48.632;10.230;2024-03-02T13:58:31;11.30;;;9.57;;
85377;SDS011;75782;48.632;10.230;2024-03-02T14:00:57;12.03;;;9.83;;
85377;SDS011;75782;48.632;10.230;2024-03-02T14:03:24;11.50;;;9.70;;
85377;SDS011;75782;48.632;10.230;2024-03-02T14:05:51;14.37;;;11.37;;
85377;SDS011;75782;48.632;10.230;2024-03-02T14:08:18;12.73;;;10.23;;
85377;SDS011;75782;48.632;10.230;2024-03-02T14:10:45;15.27;;;11.53;;